sensor_id;sensor_type;location;lat;lon;timestamp;P1;durP1;ratioP1;P2;durP2;ratioP2
8825;SDS011;4449;50.872;4.714;2023-04-24T00:00:48;15.60;;;8.73;;
8825;SDS011;4449;50.872;4.714;2023-04-24T00:03:16;14.33;;;8.30;;
8825;SDS011;4449;50.872;4.714;2023-04-24T00:05:46;14.37;;;7.80;;
8825;SDS011;4449;50.872;4.714;2023-04-24T00:08:15;13.53;;;9.00;;
8825;SDS011;4449;50.872;4.714;2023-04-24T00:10:43;11.47;;;9.10;;
8825;SDS011;4449;50.872;4.714;2023-04-24T00:13:11;15.03;;;8.93;;
8825;SDS011;4449;50.872;4.714;2023-04-24T00:15:39;14.77;;;9.50;;
8825;SDS011;4449;50.872;4.714;2023-04-24T00:18:06;14.53;;;9.73;;
8825;SDS011;4449;50.872;4.714;2023-04-24T00:20:34;16.73;;;9.80;;
8825;SDS011;4449;50.872;4.714;2023-04-24T00:23:02;20.10;;;9.63;;
8825;SDS011;4449;50.872;4.714;2023-04-24T00:25:32;15.63;;;9.70;;
8825;SDS011;4449;50.872;4.714;2023-04-24T00:27:59;15.53;;;9.20;;
8825;SDS011;4449;50.872;4.714;2023-04-24T00:30:27;14.23;;;8.83;;
8825;SDS011;4449;50.872;4.714;2023-04-24T00:32:55;13.67;;;9.80;;
8825;SDS011;4449;50.872;4.714;2023-04-24T00:35:23;16.70;;;9.03;;
8825;SDS011;4449;50.872;4.714;2023-04-24T00:37:50;13.83;;;9.13;;
8825;SDS011;4449;50.872;4.714;2023-04-24T00:40:18;13.73;;;9.20;;
8825;SDS011;4449;50.872;4.714;2023-04-24T00:42:48;15.47;;;8.67;;
8825;SDS011;4449;50.872;4.714;2023-04-24T00:45:16;17.13;;;9.37;;
8825;SDS011;4449;50.872;4.714;2023-04-24T00:47:43;18.20;;;10.13;;
8825;SDS011;4449;50.872;4.714;2023-04-24T00:50:12;14.53;;;9.17;;
8825;SDS011;4449;50.872;4.714;2023-04-24T00:52:41;12.17;;;8.90;;
8825;SDS011;4449;50.872;4.714;2023-04-24T00:55:09;17.47;;;9.77;;
8825;SDS011;4449;50.872;4.714;2023-04-24T00:57:37;15.13;;;9.77;;
8825;SDS011;4449;50.872;4.714;2023-04-24T01:00:07;12.53;;;9.67;;
8825;SDS011;4449;50.872;4.714;2023-04-24T01:02:37;18.17;;;10.23;;
8825;SDS011;4449;50.872;4.714;2023-04-24T01:05:09;14.67;;;9.60;;
8825;SDS011;4449;50.872;4.714;2023-04-24T01:07:37;11.50;;;9.10;;
8825;SDS011;4449;50.872;4.714;2023-04-24T01:10:06;16.10;;;9.40;;
8825;SDS011;4449;50.872;4.714;2023-04-24T01:12:34;18.90;;;10.30;;
8825;SDS011;4449;50.872;4.714;2023-04-24T01:15:02;15.07;;;9.87;;
8825;SDS011;4449;50.872;4.714;2023-04-24T01:17:31;19.40;;;9.70;;
8825;SDS011;4449;50.872;4.714;2023-04-24T01:19:59;22.73;;;9.70;;
8825;SDS011;4449;50.872;4.714;2023-04-24T01:22:32;16.17;;;9.63;;
8825;SDS011;4449;50.872;4.714;2023-04-24T01:25:01;10.67;;;9.20;;
8825;SDS011;4449;50.872;4.714;2023-04-24T01:27:29;17.77;;;9.30;;
8825;SDS011;4449;50.872;4.714;2023-04-24T01:29:56;12.63;;;9.03;;
8825;SDS011;4449;50.872;4.714;2023-04-24T01:32:24;15.90;;;9.20;;
8825;SDS011;4449;50.872;4.714;2023-04-24T01:34:52;13.53;;;10.17;;
8825;SDS011;4449;50.872;4.714;2023-04-24T01:37:20;13.13;;;8.97;;
8825;SDS011;4449;50.872;4.714;2023-04-24T01:39:49;13.73;;;8.50;;
8825;SDS011;4449;50.872;4.714;2023-04-24T01:42:17;11.70;;;8.37;;
8825;SDS011;4449;50.872;4.714;2023-04-24T01:44:45;12.47;;;7.20;;
8825;SDS011;4449;50.872;4.714;2023-04-24T01:47:12;13.30;;;8.37;;
8825;SDS011;4449;50.872;4.714;2023-04-24T01:49:40;12.50;;;8.00;;
8825;SDS011;4449;50.872;4.714;2023-04-24T01:52:08;10.40;;;7.90;;
8825;SDS011;4449;50.872;4.714;2023-04-24T01:54:36;12.23;;;8.33;;
8825;SDS011;4449;50.872;4.714;2023-04-24T01:57:05;13.93;;;8.13;;
8825;SDS011;4449;50.872;4.714;2023-04-24T01:59:33;11.70;;;8.17;;
8825;SDS011;4449;50.872;4.714;2023-04-24T02:02:02;11.57;;;8.30;;
8825;SDS011;4449;50.872;4.714;2023-04-24T02:04:30;15.60;;;7.73;;
8825;SDS011;4449;50.872;4.714;2023-04-24T02:06:57;12.43;;;7.00;;
8825;SDS011;4449;50.872;4.714;2023-04-24T02:09:25;11.50;;;7.80;;
8825;SDS011;4449;50.872;4.714;2023-04-24T02:11:53;8.40;;;7.40;;
8825;SDS011;4449;50.872;4.714;2023-04-24T02:14:23;8.53;;;7.30;;
8825;SDS011;4449;50.872;4.714;2023-04-24T02:16:51;12.60;;;7.73;;
8825;SDS011;4449;50.872;4.714;2023-04-24T02:19:18;10.67;;;7.40;;
8825;SDS011;4449;50.872;4.714;2023-04-24T02:21:46;8.63;;;7.67;;
8825;SDS011;4449;50.872;4.714;2023-04-24T02:24:14;10.13;;;8.07;;
8825;SDS011;4449;50.872;4.714;2023-04-24T02:26:42;10.13;;;7.93;;
8825;SDS011;4449;50.872;4.714;2023-04-24T02:29:10;9.87;;;7.73;;
8825;SDS011;4449;50.872;4.714;2023-04-24T02:31:39;15.03;;;8.73;;
8825;SDS011;4449;50.872;4.714;2023-04-24T02:34:07;12.47;;;8.97;;
8825;SDS011;4449;50.872;4.714;2023-04-24T02:36:35;12.10;;;9.40;;
8825;SDS011;4449;50.872;4.714;2023-04-24T02:39:03;12.57;;;9.43;;
8825;SDS011;4449;50.872;4.714;2023-04-24T02:41:31;12.33;;;9.67;;
8825;SDS011;4449;50.872;4.714;2023-04-24T02:44:02;12.50;;;8.70;;
8825;SDS011;4449;50.872;4.714;2023-04-24T02:46:30;13.10;;;9.20;;
8825;SDS011;4449;50.872;4.714;2023-04-24T02:48:59;11.63;;;9.33;;
8825;SDS011;4449;50.872;4.714;2023-04-24T02:51:27;15.07;;;9.33;;
8825;SDS011;4449;50.872;4.714;2023-04-24T02:53:54;14.27;;;9.67;;
8825;SDS011;4449;50.872;4.714;2023-04-24T02:56:22;12.30;;;9.03;;
8825;SDS011;4449;50.872;4.714;2023-04-24T02:58:50;15.50;;;9.47;;
8825;SDS011;4449;50.872;4.714;2023-04-24T03:01:18;13.20;;;8.97;;
8825;SDS011;4449;50.872;4.714;2023-04-24T03:03:46;11.20;;;9.00;;
8825;SDS011;4449;50.872;4.714;2023-04-24T03:06:16;16.37;;;10.00;;
8825;SDS011;4449;50.872;4.714;2023-04-24T03:08:43;11.90;;;8.83;;
8825;SDS011;4449;50.872;4.714;2023-04-24T03:11:11;11.90;;;8.87;;
8825;SDS011;4449;50.872;4.714;2023-04-24T03:13:39;10.50;;;8.30;;
8825;SDS011;4449;50.872;4.714;2023-04-24T03:16:06;10.17;;;8.07;;
8825;SDS011;4449;50.872;4.714;2023-04-24T03:18:34;13.03;;;8.70;;
8825;SDS011;4449;50.872;4.714;2023-04-24T03:21:02;9.07;;;8.20;;
8825;SDS011;4449;50.872;4.714;2023-04-24T03:23:32;10.63;;;7.90;;
8825;SDS011;4449;50.872;4.714;2023-04-24T03:25:59;11.97;;;7.50;;
8825;SDS011;4449;50.872;4.714;2023-04-24T03:28:27;11.10;;;8.17;;
8825;SDS011;4449;50.872;4.714;2023-04-24T03:30:54;9.70;;;7.27;;
8825;SDS011;4449;50.872;4.714;2023-04-24T03:33:22;14.07;;;7.70;;
8825;SDS011;4449;50.872;4.714;2023-04-24T03:35:50;8.63;;;7.27;;
8825;SDS011;4449;50.872;4.714;2023-04-24T03:38:18;11.93;;;7.43;;
8825;SDS011;4449;50.872;4.714;2023-04-24T03:40:47;8.13;;;7.30;;
8825;SDS011;4449;50.872;4.714;2023-04-24T03:43:15;8.60;;;7.70;;
8825;SDS011;4449;50.872;4.714;2023-04-24T03:45:43;9.27;;;6.80;;
8825;SDS011;4449;50.872;4.714;2023-04-24T03:48:10;10.63;;;7.17;;
8825;SDS011;4449;50.872;4.714;2023-04-24T03:50:38;8.23;;;7.30;;
8825;SDS011;4449;50.872;4.714;2023-04-24T03:53:06;9.27;;;7.30;;
8825;SDS011;4449;50.872;4.714;2023-04-24T03:55:33;12.10;;;7.00;;
8825;SDS011;4449;50.872;4.714;2023-04-24T03:58:03;11.33;;;8.07;;
8825;SDS011;4449;50.872;4.714;2023-04-24T04:00:31;10.53;;;7.33;;
8825;SDS011;4449;50.872;4.714;2023-04-24T04:03:00;7.03;;;6.03;;
8825;SDS011;4449;50.872;4.714;2023-04-24T04:05:27;7.80;;;7.10;;
8825;SDS011;4449;50.872;4.714;2023-04-24T04:07:55;6.50;;;5.87;;
8825;SDS011;4449;50.872;4.714;2023-04-24T04:10:23;9.07;;;6.40;;
8825;SDS011;4449;50.872;4.714;2023-04-24T04:12:50;6.93;;;5.30;;
8825;SDS011;4449;50.872;4.714;2023-04-24T04:15:20;6.20;;;5.37;;
8825;SDS011;4449;50.872;4.714;2023-04-24T04:17:47;5.00;;;4.60;;
8825;SDS011;4449;50.872;4.714;2023-04-24T04:20:15;5.50;;;4.90;;
8825;SDS011;4449;50.872;4.714;2023-04-24T04:22:43;7.33;;;4.77;;
8825;SDS011;4449;50.872;4.714;2023-04-24T04:25:11;4.67;;;4.27;;
8825;SDS011;4449;50.872;4.714;2023-04-24T04:27:39;4.67;;;4.27;;
8825;SDS011;4449;50.872;4.714;2023-04-24T04:30:07;5.00;;;4.60;;
8825;SDS011;4449;50.872;4.714;2023-04-24T04:32:36;8.53;;;5.63;;
8825;SDS011;4449;50.872;4.714;2023-04-24T04:35:04;6.10;;;4.07;;
8825;SDS011;4449;50.872;4.714;2023-04-24T04:37:32;4.83;;;4.27;;
8825;SDS011;4449;50.872;4.714;2023-04-24T04:40:00;5.17;;;4.07;;
8825;SDS011;4449;50.872;4.714;2023-04-24T04:42:31;6.50;;;4.30;;
8825;SDS011;4449;50.872;4.714;2023-04-24T04:44:59;4.00;;;3.70;;
8825;SDS011;4449;50.872;4.714;2023-04-24T04:47:27;4.30;;;3.87;;
8825;SDS011;4449;50.872;4.714;2023-04-24T04:49:58;7.07;;;3.73;;
8825;SDS011;4449;50.872;4.714;2023-04-24T04:52:26;4.43;;;4.03;;
8825;SDS011;4449;50.872;4.714;2023-04-24T04:54:54;4.13;;;3.83;;
8825;SDS011;4449;50.872;4.714;2023-04-24T04:57:21;3.70;;;3.40;;
8825;SDS011;4449;50.872;4.714;2023-04-24T04:59:50;4.17;;;3.70;;
8825;SDS011;4449;50.872;4.714;2023-04-24T05:02:17;4.33;;;4.00;;
8825;SDS011;4449;50.872;4.714;2023-04-24T05:04:46;5.77;;;4.07;;
8825;SDS011;4449;50.872;4.714;2023-04-24T05:07:15;5.40;;;4.50;;
8825;SDS011;4449;50.872;4.714;2023-04-24T05:09:43;7.73;;;4.30;;
8825;SDS011;4449;50.872;4.714;2023-04-24T05:12:11;5.53;;;5.03;;
8825;SDS011;4449;50.872;4.714;2023-04-24T05:14:39;6.43;;;5.10;;
8825;SDS011;4449;50.872;4.714;2023-04-24T05:17:07;5.77;;;5.17;;
8825;SDS011;4449;50.872;4.714;2023-04-24T05:19:35;8.13;;;6.33;;
8825;SDS011;4449;50.872;4.714;2023-04-24T05:22:03;6.20;;;5.60;;
8825;SDS011;4449;50.872;4.714;2023-04-24T05:24:33;12.50;;;5.67;;
8825;SDS011;4449;50.872;4.714;2023-04-24T05:27:01;6.90;;;4.77;;
8825;SDS011;4449;50.872;4.714;2023-04-24T05:29:29;7.40;;;5.60;;
8825;SDS011;4449;50.872;4.714;2023-04-24T05:31:58;9.33;;;5.90;;
8825;SDS011;4449;50.872;4.714;2023-04-24T05:34:26;7.53;;;5.90;;
8825;SDS011;4449;50.872;4.714;2023-04-24T05:36:54;7.30;;;5.57;;
8825;SDS011;4449;50.872;4.714;2023-04-24T05:39:21;9.17;;;6.47;;
8825;SDS011;4449;50.872;4.714;2023-04-24T05:41:51;10.80;;;6.73;;
8825;SDS011;4449;50.872;4.714;2023-04-24T05:44:20;6.40;;;5.80;;
8825;SDS011;4449;50.872;4.714;2023-04-24T05:46:48;7.50;;;6.27;;
8825;SDS011;4449;50.872;4.714;2023-04-24T05:49:16;7.97;;;6.07;;
8825;SDS011;4449;50.872;4.714;2023-04-24T05:51:43;8.93;;;6.17;;
8825;SDS011;4449;50.872;4.714;2023-04-24T05:54:11;7.47;;;5.87;;
8825;SDS011;4449;50.872;4.714;2023-04-24T05:56:39;7.00;;;6.33;;
8825;SDS011;4449;50.872;4.714;2023-04-24T05:59:08;7.63;;;6.50;;
8825;SDS011;4449;50.872;4.714;2023-04-24T06:01:36;9.57;;;6.07;;
8825;SDS011;4449;50.872;4.714;2023-04-24T06:04:04;7.70;;;6.60;;
8825;SDS011;4449;50.872;4.714;2023-04-24T06:06:32;12.23;;;6.83;;
8825;SDS011;4449;50.872;4.714;2023-04-24T06:08:59;10.40;;;6.93;;
8825;SDS011;4449;50.872;4.714;2023-04-24T06:11:28;10.50;;;7.13;;
8825;SDS011;4449;50.872;4.714;2023-04-24T06:13:56;9.60;;;7.27;;
8825;SDS011;4449;50.872;4.714;2023-04-24T06:16:25;11.23;;;7.97;;
8825;SDS011;4449;50.872;4.714;2023-04-24T06:18:53;13.70;;;7.67;;
8825;SDS011;4449;50.872;4.714;2023-04-24T06:21:21;13.10;;;8.17;;
8825;SDS011;4449;50.872;4.714;2023-04-24T06:23:49;9.33;;;7.80;;
8825;SDS011;4449;50.872;4.714;2023-04-24T06:26:17;12.63;;;7.40;;
8825;SDS011;4449;50.872;4.714;2023-04-24T06:28:45;9.37;;;7.20;;
8825;SDS011;4449;50.872;4.714;2023-04-24T06:31:13;12.77;;;7.90;;
8825;SDS011;4449;50.872;4.714;2023-04-24T06:33:42;14.67;;;8.23;;
8825;SDS011;4449;50.872;4.714;2023-04-24T06:36:10;13.17;;;7.87;;
8825;SDS011;4449;50.872;4.714;2023-04-24T06:38:38;9.93;;;8.23;;
8825;SDS011;4449;50.872;4.714;2023-04-24T06:41:06;14.00;;;8.30;;
8825;SDS011;4449;50.872;4.714;2023-04-24T06:43:34;14.13;;;9.70;;
8825;SDS011;4449;50.872;4.714;2023-04-24T06:46:01;11.87;;;8.17;;
8825;SDS011;4449;50.872;4.714;2023-04-24T06:48:29;15.07;;;9.10;;
8825;SDS011;4449;50.872;4.714;2023-04-24T06:50:58;12.77;;;8.57;;
8825;SDS011;4449;50.872;4.714;2023-04-24T06:53:26;13.87;;;9.00;;
8825;SDS011;4449;50.872;4.714;2023-04-24T06:55:54;13.10;;;9.53;;
8825;SDS011;4449;50.872;4.714;2023-04-24T06:58:21;13.73;;;8.67;;
8825;SDS011;4449;50.872;4.714;2023-04-24T07:00:49;16.10;;;10.03;;
8825;SDS011;4449;50.872;4.714;2023-04-24T07:03:17;14.73;;;9.33;;
8825;SDS011;4449;50.872;4.714;2023-04-24T07:05:45;19.90;;;8.73;;
8825;SDS011;4449;50.872;4.714;2023-04-24T07:08:14;17.17;;;9.10;;
8825;SDS011;4449;50.872;4.714;2023-04-24T07:10:43;17.97;;;10.40;;
8825;SDS011;4449;50.872;4.714;2023-04-24T07:13:11;15.30;;;9.90;;
8825;SDS011;4449;50.872;4.714;2023-04-24T07:15:39;19.27;;;10.10;;
8825;SDS011;4449;50.872;4.714;2023-04-24T07:18:07;15.33;;;10.30;;
8825;SDS011;4449;50.872;4.714;2023-04-24T07:20:34;15.93;;;9.30;;
8825;SDS011;4449;50.872;4.714;2023-04-24T07:23:02;15.30;;;10.27;;
8825;SDS011;4449;50.872;4.714;2023-04-24T07:25:31;19.03;;;10.47;;
8825;SDS011;4449;50.872;4.714;2023-04-24T07:27:59;18.53;;;9.20;;
8825;SDS011;4449;50.872;4.714;2023-04-24T07:30:27;19.87;;;8.90;;
8825;SDS011;4449;50.872;4.714;2023-04-24T07:32:55;19.97;;;9.63;;
8825;SDS011;4449;50.872;4.714;2023-04-24T07:35:23;19.43;;;10.00;;
8825;SDS011;4449;50.872;4.714;2023-04-24T07:37:51;16.90;;;9.20;;
8825;SDS011;4449;50.872;4.714;2023-04-24T07:40:20;25.33;;;9.57;;
8825;SDS011;4449;50.872;4.714;2023-04-24T07:42:49;23.13;;;10.30;;
8825;SDS011;4449;50.872;4.714;2023-04-24T07:45:17;22.38;;;11.18;;
8825;SDS011;4449;50.872;4.714;2023-04-24T07:47:44;14.13;;;9.33;;
8825;SDS011;4449;50.872;4.714;2023-04-24T07:50:12;16.60;;;7.77;;
8825;SDS011;4449;50.872;4.714;2023-04-24T07:52:40;15.47;;;9.53;;
8825;SDS011;4449;50.872;4.714;2023-04-24T07:55:07;14.00;;;8.80;;
8825;SDS011;4449;50.872;4.714;2023-04-24T07:57:35;16.10;;;8.80;;
8825;SDS011;4449;50.872;4.714;2023-04-24T08:00:05;16.57;;;8.83;;
8825;SDS011;4449;50.872;4.714;2023-04-24T08:02:33;13.10;;;7.80;;
8825;SDS011;4449;50.872;4.714;2023-04-24T08:05:01;17.50;;;8.70;;
8825;SDS011;4449;50.872;4.714;2023-04-24T08:07:29;13.30;;;8.20;;
8825;SDS011;4449;50.872;4.714;2023-04-24T08:09:56;22.93;;;8.83;;
8825;SDS011;4449;50.872;4.714;2023-04-24T08:12:25;15.37;;;7.53;;
8825;SDS011;4449;50.872;4.714;2023-04-24T08:14:52;16.30;;;7.30;;
8825;SDS011;4449;50.872;4.714;2023-04-24T08:17:22;12.67;;;7.50;;
8825;SDS011;4449;50.872;4.714;2023-04-24T08:19:49;14.53;;;6.80;;
8825;SDS011;4449;50.872;4.714;2023-04-24T08:22:19;13.07;;;6.33;;
8825;SDS011;4449;50.872;4.714;2023-04-24T08:24:47;12.77;;;7.30;;
8825;SDS011;4449;50.872;4.714;2023-04-24T08:27:14;14.67;;;6.23;;
8825;SDS011;4449;50.872;4.714;2023-04-24T08:29:42;10.80;;;6.93;;
8825;SDS011;4449;50.872;4.714;2023-04-24T08:32:10;13.57;;;7.17;;
8825;SDS011;4449;50.872;4.714;2023-04-24T08:34:39;13.40;;;7.53;;
8825;SDS011;4449;50.872;4.714;2023-04-24T08:37:06;11.97;;;6.90;;
8825;SDS011;4449;50.872;4.714;2023-04-24T08:39:34;16.53;;;6.67;;
8825;SDS011;4449;50.872;4.714;2023-04-24T08:42:02;9.70;;;6.40;;
8825;SDS011;4449;50.872;4.714;2023-04-24T08:44:40;13.87;;;6.80;;
8825;SDS011;4449;50.872;4.714;2023-04-24T08:47:08;12.97;;;6.20;;
8825;SDS011;4449;50.872;4.714;2023-04-24T08:49:36;9.73;;;7.10;;
8825;SDS011;4449;50.872;4.714;2023-04-24T08:52:06;11.50;;;7.73;;
8825;SDS011;4449;50.872;4.714;2023-04-24T08:54:34;16.80;;;7.17;;
8825;SDS011;4449;50.872;4.714;2023-04-24T08:57:02;14.83;;;7.33;;
8825;SDS011;4449;50.872;4.714;2023-04-24T08:59:30;8.13;;;5.43;;
8825;SDS011;4449;50.872;4.714;2023-04-24T09:01:59;11.57;;;5.67;;
8825;SDS011;4449;50.872;4.714;2023-04-24T09:04:27;13.13;;;6.10;;
8825;SDS011;4449;50.872;4.714;2023-04-24T09:06:57;11.83;;;5.53;;
8825;SDS011;4449;50.872;4.714;2023-04-24T09:09:26;10.63;;;5.20;;
8825;SDS011;4449;50.872;4.714;2023-04-24T09:11:57;11.93;;;5.30;;
8825;SDS011;4449;50.872;4.714;2023-04-24T09:14:26;11.47;;;5.73;;
8825;SDS011;4449;50.872;4.714;2023-04-24T09:16:53;18.90;;;6.23;;
8825;SDS011;4449;50.872;4.714;2023-04-24T09:19:21;15.20;;;5.70;;
8825;SDS011;4449;50.872;4.714;2023-04-24T09:21:49;13.53;;;5.97;;
8825;SDS011;4449;50.872;4.714;2023-04-24T09:24:17;18.47;;;5.53;;
8825;SDS011;4449;50.872;4.714;2023-04-24T09:26:49;9.67;;;5.47;;
8825;SDS011;4449;50.872;4.714;2023-04-24T09:29:23;9.00;;;5.03;;
8825;SDS011;4449;50.872;4.714;2023-04-24T09:31:51;6.03;;;4.53;;
8825;SDS011;4449;50.872;4.714;2023-04-24T09:34:21;11.43;;;5.07;;
8825;SDS011;4449;50.872;4.714;2023-04-24T09:36:49;11.50;;;5.53;;
8825;SDS011;4449;50.872;4.714;2023-04-24T10:40:58;7.63;;;3.80;;
8825;SDS011;4449;50.872;4.714;2023-04-24T10:43:34;3.77;;;3.47;;
8825;SDS011;4449;50.872;4.714;2023-04-24T10:46:03;9.13;;;4.00;;
8825;SDS011;4449;50.872;4.714;2023-04-24T10:48:31;7.37;;;4.17;;
8825;SDS011;4449;50.872;4.714;2023-04-24T10:50:59;5.57;;;3.93;;
8825;SDS011;4449;50.872;4.714;2023-04-24T10:53:27;5.63;;;3.90;;
8825;SDS011;4449;50.872;4.714;2023-04-24T10:55:57;5.93;;;3.80;;
8825;SDS011;4449;50.872;4.714;2023-04-24T10:58:36;4.17;;;2.97;;
8825;SDS011;4449;50.872;4.714;2023-04-24T11:01:05;5.43;;;3.90;;
8825;SDS011;4449;50.872;4.714;2023-04-24T11:03:34;6.80;;;3.70;;
8825;SDS011;4449;50.872;4.714;2023-04-24T11:06:03;6.47;;;3.77;;
8825;SDS011;4449;50.872;4.714;2023-04-24T11:08:42;4.30;;;3.33;;
8825;SDS011;4449;50.872;4.714;2023-04-24T11:11:11;6.80;;;3.77;;
8825;SDS011;4449;50.872;4.714;2023-04-24T11:16:27;4.53;;;3.47;;
8825;SDS011;4449;50.872;4.714;2023-04-24T11:19:00;9.47;;;3.77;;
8825;SDS011;4449;50.872;4.714;2023-04-24T11:21:30;7.70;;;3.80;;
8825;SDS011;4449;50.872;4.714;2023-04-24T11:23:58;8.67;;;4.13;;
8825;SDS011;4449;50.872;4.714;2023-04-24T11:26:26;6.93;;;5.60;;
8825;SDS011;4449;50.872;4.714;2023-04-24T11:29:06;10.23;;;4.10;;
8825;SDS011;4449;50.872;4.714;2023-04-24T11:31:36;8.07;;;4.07;;
8825;SDS011;4449;50.872;4.714;2023-04-24T11:34:07;6.43;;;4.10;;
8825;SDS011;4449;50.872;4.714;2023-04-24T11:36:35;17.77;;;4.70;;
8825;SDS011;4449;50.872;4.714;2023-04-24T11:39:03;7.30;;;4.60;;
8825;SDS011;4449;50.872;4.714;2023-04-24T11:41:31;8.73;;;4.20;;
8825;SDS011;4449;50.872;4.714;2023-04-24T11:43:59;5.87;;;3.60;;
8825;SDS011;4449;50.872;4.714;2023-04-24T11:46:27;4.27;;;3.80;;
8825;SDS011;4449;50.872;4.714;2023-04-24T11:48:58;8.23;;;4.03;;
8825;SDS011;4449;50.872;4.714;2023-04-24T11:51:26;9.37;;;4.00;;
8825;SDS011;4449;50.872;4.714;2023-04-24T11:53:55;10.00;;;4.07;;
8825;SDS011;4449;50.872;4.714;2023-04-24T11:56:23;6.07;;;3.87;;
8825;SDS011;4449;50.872;4.714;2023-04-24T11:58:51;7.37;;;3.87;;
8825;SDS011;4449;50.872;4.714;2023-04-24T12:01:20;7.43;;;4.00;;
8825;SDS011;4449;50.872;4.714;2023-04-24T12:03:48;8.00;;;4.37;;
8825;SDS011;4449;50.872;4.714;2023-04-24T12:06:18;6.67;;;3.50;;
8825;SDS011;4449;50.872;4.714;2023-04-24T12:08:46;9.93;;;5.37;;
8825;SDS011;4449;50.872;4.714;2023-04-24T12:11:15;4.33;;;3.47;;
8825;SDS011;4449;50.872;4.714;2023-04-24T12:13:44;7.20;;;3.77;;
8825;SDS011;4449;50.872;4.714;2023-04-24T12:16:12;5.57;;;3.70;;
8825;SDS011;4449;50.872;4.714;2023-04-24T12:18:44;5.93;;;3.63;;
8825;SDS011;4449;50.872;4.714;2023-04-24T12:21:15;5.10;;;4.00;;
8825;SDS011;4449;50.872;4.714;2023-04-24T12:23:44;4.57;;;3.80;;
8825;SDS011;4449;50.872;4.714;2023-04-24T12:26:12;6.00;;;4.23;;
8825;SDS011;4449;50.872;4.714;2023-04-24T12:28:45;8.33;;;3.67;;
8825;SDS011;4449;50.872;4.714;2023-04-24T12:31:13;4.87;;;3.80;;
8825;SDS011;4449;50.872;4.714;2023-04-24T12:33:41;8.10;;;3.90;;
8825;SDS011;4449;50.872;4.714;2023-04-24T12:36:10;3.97;;;3.70;;
8825;SDS011;4449;50.872;4.714;2023-04-24T12:38:39;4.73;;;4.23;;
8825;SDS011;4449;50.872;4.714;2023-04-24T12:41:08;6.33;;;4.50;;
8825;SDS011;4449;50.872;4.714;2023-04-24T12:43:36;8.27;;;4.10;;
8825;SDS011;4449;50.872;4.714;2023-04-24T12:46:04;6.73;;;3.47;;
8825;SDS011;4449;50.872;4.714;2023-04-24T12:48:32;4.13;;;3.93;;
8825;SDS011;4449;50.872;4.714;2023-04-24T12:51:00;3.80;;;3.43;;
8825;SDS011;4449;50.872;4.714;2023-04-24T12:53:28;5.30;;;3.53;;
8825;SDS011;4449;50.872;4.714;2023-04-24T12:55:56;6.73;;;4.07;;
8825;SDS011;4449;50.872;4.714;2023-04-24T12:58:25;5.23;;;3.40;;
8825;SDS011;4449;50.872;4.714;2023-04-24T13:00:53;3.33;;;3.13;;
8825;SDS011;4449;50.872;4.714;2023-04-24T13:03:21;3.97;;;3.33;;
8825;SDS011;4449;50.872;4.714;2023-04-24T13:05:49;5.23;;;3.43;;
8825;SDS011;4449;50.872;4.714;2023-04-24T13:08:17;6.70;;;3.63;;
8825;SDS011;4449;50.872;4.714;2023-04-24T13:10:44;6.97;;;3.83;;
8825;SDS011;4449;50.872;4.714;2023-04-24T13:13:12;5.87;;;3.60;;
8825;SDS011;4449;50.872;4.714;2023-04-24T13:15:41;3.83;;;3.40;;
8825;SDS011;4449;50.872;4.714;2023-04-24T13:18:09;5.77;;;3.13;;
8825;SDS011;4449;50.872;4.714;2023-04-24T13:20:36;5.53;;;3.30;;
8825;SDS011;4449;50.872;4.714;2023-04-24T13:23:06;5.47;;;3.77;;
8825;SDS011;4449;50.872;4.714;2023-04-24T13:25:34;10.60;;;4.17;;
8825;SDS011;4449;50.872;4.714;2023-04-24T13:28:04;3.70;;;3.40;;
8825;SDS011;4449;50.872;4.714;2023-04-24T13:30:32;5.50;;;3.93;;
8825;SDS011;4449;50.872;4.714;2023-04-24T13:33:01;4.73;;;3.87;;
8825;SDS011;4449;50.872;4.714;2023-04-24T13:35:29;3.77;;;3.40;;
8825;SDS011;4449;50.872;4.714;2023-04-24T13:37:57;4.33;;;3.33;;
8825;SDS011;4449;50.872;4.714;2023-04-24T13:40:26;6.13;;;3.27;;
8825;SDS011;4449;50.872;4.714;2023-04-24T13:42:54;4.00;;;3.30;;
8825;SDS011;4449;50.872;4.714;2023-04-24T13:45:22;7.60;;;3.03;;
8825;SDS011;4449;50.872;4.714;2023-04-24T13:47:50;6.10;;;2.63;;
8825;SDS011;4449;50.872;4.714;2023-04-24T13:50:20;5.77;;;2.80;;
8825;SDS011;4449;50.872;4.714;2023-04-24T13:52:48;6.03;;;2.73;;
8825;SDS011;4449;50.872;4.714;2023-04-24T13:55:16;4.93;;;2.73;;
8825;SDS011;4449;50.872;4.714;2023-04-24T13:57:43;5.33;;;2.63;;
8825;SDS011;4449;50.872;4.714;2023-04-24T14:00:12;3.03;;;2.43;;
8825;SDS011;4449;50.872;4.714;2023-04-24T14:02:40;5.73;;;2.87;;
8825;SDS011;4449;50.872;4.714;2023-04-24T14:05:08;6.27;;;3.00;;
8825;SDS011;4449;50.872;4.714;2023-04-24T14:07:38;3.43;;;3.13;;
8825;SDS011;4449;50.872;4.714;2023-04-24T14:10:06;2.60;;;2.50;;
8825;SDS011;4449;50.872;4.714;2023-04-24T14:12:34;4.30;;;3.00;;
8825;SDS011;4449;50.872;4.714;2023-04-24T14:15:02;4.83;;;3.30;;
8825;SDS011;4449;50.872;4.714;2023-04-24T14:17:30;4.03;;;2.93;;
8825;SDS011;4449;50.872;4.714;2023-04-24T14:19:57;3.33;;;3.03;;
8825;SDS011;4449;50.872;4.714;2023-04-24T14:22:25;2.87;;;2.57;;
8825;SDS011;4449;50.872;4.714;2023-04-24T14:24:55;9.23;;;2.70;;
8825;SDS011;4449;50.872;4.714;2023-04-24T14:27:23;4.23;;;2.90;;
8825;SDS011;4449;50.872;4.714;2023-04-24T14:29:51;6.57;;;3.07;;
8825;SDS011;4449;50.872;4.714;2023-04-24T14:32:19;3.23;;;2.90;;
8825;SDS011;4449;50.872;4.714;2023-04-24T14:34:47;4.50;;;2.70;;
8825;SDS011;4449;50.872;4.714;2023-04-24T14:37:14;3.70;;;2.37;;
8825;SDS011;4449;50.872;4.714;2023-04-24T14:39:45;5.43;;;2.47;;
8825;SDS011;4449;50.872;4.714;2023-04-24T14:42:14;2.73;;;2.47;;
8825;SDS011;4449;50.872;4.714;2023-04-24T14:44:42;2.20;;;2.07;;
8825;SDS011;4449;50.872;4.714;2023-04-24T14:47:10;2.40;;;2.20;;
8825;SDS011;4449;50.872;4.714;2023-04-24T14:49:38;9.63;;;2.80;;
8825;SDS011;4449;50.872;4.714;2023-04-24T14:52:05;4.23;;;2.50;;
8825;SDS011;4449;50.872;4.714;2023-04-24T14:54:33;3.10;;;2.60;;
8825;SDS011;4449;50.872;4.714;2023-04-24T14:57:01;5.60;;;2.40;;
8825;SDS011;4449;50.872;4.714;2023-04-24T14:59:30;7.43;;;2.70;;
8825;SDS011;4449;50.872;4.714;2023-04-24T15:01:58;6.00;;;2.40;;
8825;SDS011;4449;50.872;4.714;2023-04-24T15:04:28;5.97;;;3.20;;
8825;SDS011;4449;50.872;4.714;2023-04-24T15:06:56;3.00;;;2.60;;
8825;SDS011;4449;50.872;4.714;2023-04-24T15:09:24;7.53;;;2.60;;
8825;SDS011;4449;50.872;4.714;2023-04-24T15:11:53;4.40;;;2.83;;
8825;SDS011;4449;50.872;4.714;2023-04-24T15:14:21;4.90;;;2.80;;
8825;SDS011;4449;50.872;4.714;2023-04-24T15:16:51;5.10;;;2.63;;
8825;SDS011;4449;50.872;4.714;2023-04-24T15:19:19;4.40;;;3.27;;
8825;SDS011;4449;50.872;4.714;2023-04-24T15:21:49;7.37;;;3.20;;
8825;SDS011;4449;50.872;4.714;2023-04-24T15:24:19;7.77;;;3.60;;
8825;SDS011;4449;50.872;4.714;2023-04-24T15:26:49;4.73;;;2.87;;
8825;SDS011;4449;50.872;4.714;2023-04-24T15:29:17;8.47;;;3.13;;
8825;SDS011;4449;50.872;4.714;2023-04-24T15:31:45;4.10;;;2.77;;
8825;SDS011;4449;50.872;4.714;2023-04-24T15:34:14;4.20;;;3.90;;
8825;SDS011;4449;50.872;4.714;2023-04-24T15:36:42;6.57;;;2.80;;
8825;SDS011;4449;50.872;4.714;2023-04-24T15:39:09;3.87;;;2.30;;
8825;SDS011;4449;50.872;4.714;2023-04-24T15:41:37;3.37;;;2.50;;
8825;SDS011;4449;50.872;4.714;2023-04-24T15:44:05;4.67;;;2.23;;
8825;SDS011;4449;50.872;4.714;2023-04-24T15:46:33;2.73;;;2.53;;
8825;SDS011;4449;50.872;4.714;2023-04-24T15:49:03;2.73;;;2.50;;
8825;SDS011;4449;50.872;4.714;2023-04-24T15:51:32;5.87;;;3.40;;
8825;SDS011;4449;50.872;4.714;2023-04-24T15:54:03;5.73;;;3.27;;
8825;SDS011;4449;50.872;4.714;2023-04-24T15:56:31;2.90;;;2.70;;
8825;SDS011;4449;50.872;4.714;2023-04-24T15:58:58;4.60;;;2.50;;
8825;SDS011;4449;50.872;4.714;2023-04-24T16:01:27;5.63;;;2.60;;
8825;SDS011;4449;50.872;4.714;2023-04-24T16:03:55;5.70;;;2.50;;
8825;SDS011;4449;50.872;4.714;2023-04-24T16:06:23;5.50;;;2.10;;
8825;SDS011;4449;50.872;4.714;2023-04-24T16:08:53;3.47;;;2.40;;
8825;SDS011;4449;50.872;4.714;2023-04-24T16:11:21;3.93;;;2.00;;
8825;SDS011;4449;50.872;4.714;2023-04-24T16:13:49;3.40;;;2.20;;
8825;SDS011;4449;50.872;4.714;2023-04-24T16:16:17;3.23;;;3.03;;
8825;SDS011;4449;50.872;4.714;2023-04-24T16:18:45;2.87;;;2.57;;